Tiempo atmosférico en la estación meteorológica de Coll De Nargó, Lleida (603 m.)



Fecha
DESCASC
Temp. máxima en grados centígrados (hora)
DESCASC
Temp. mínima en grados centígrados (hora)
DESCASC
Temp. media en grados centígrados
DESCASC
Racha de viento máxima en m/sg (hora)
DESCASC
Velocidad máxima media en intervalos de 10 minutos(hora)
DESCASC
Precipitaciones diarias en mm
DESCASC
Precipitaciones de 00:00 a 06:00 en mm
DESCASC
Precipitaciones de 06:00 a 12:00 en mm
DESCASC
Precipitaciones de 12:00 a 18:00 en mm
DESCASC
Precipitaciones de 18:00 a 24:00 en mm
DESCASC
19-01-2020 11.8 (13:20) 2.2 (00:40) 7 18.61 (21:10) 10.56 (21:10) 0 0 0 0 0
18-01-2020 12.5 (13:50) -2.6 (04:10) 5 10 (15:50) 7.22 (15:50) 0 0 0 0 0
17-01-2020 16 (14:10) -0.8 (23:30) 7.6 12.22 (16:20) 6.11 (13:00) 0.6 0 0 0.6 0
16-01-2020 14.2 (14:50) -3.5 (-00:0) 5.3 11.39 (17:30) 8.33 (17:30) 0 0 0 0 0
15-01-2020 9.5 (14:30) -5.1 (-00:0) 2.2 9.44 (17:20) 6.94 (16:10) 0 0 0 0 0
14-01-2020 10.8 (15:20) -4.6 (-00:0) 3.1 10.56 (17:10) 8.61 (17:10) 0 0 0 0 0
13-01-2020 10.4 (14:10) -5.1 (-00:0) 2.6 8.33 (16:10) 6.39 (17:20) 0 0 0 0 0
12-01-2020 10.8 (14:00) -5.7 (-00:0) 2.6 11.94 (15:50) 8.89 (15:50) 0.2 0 0.2 0 0
11-01-2020 5.9 (12:30) -3.9 (-00:0) 1 15.56 (15:00) 12.5 (15:00) 0 0 0 0 0
10-01-2020 10.1 (13:50) -0.3 (00:00) 4.9 13.89 (14:20) 11.11 (14:20) 1.4 0.4 1 0 0
09-01-2020 14.4 (14:50) -1.9 (-00:0) 6.2 10.56 (16:30) 8.61 (16:30) 0 0 0 0 0
08-01-2020 13.9 (14:30) -2.2 (-00:0) 5.8 10.28 (15:00) 8.61 (14:50) 0.2 0 0.2 0 0
07-01-2020 7.3 (11:40) -3.5 (-00:0) 1.9 11.39 (13:10) 9.44 (14:40) 0.2 0 0.2 0 0
06-01-2020 13.2 (14:30) -4.3 (-00:0) 4.4 9.72 (17:00) 6.94 (16:40) 0 0 0 0 0
05-01-2020 9.4 (11:20) -2.2 (-00:0) 3.6 13.06 (15:30) 10.28 (15:00) 0 0 0 0 0
04-01-2020 6.9 (12:20) -3.3 (-00:0) 1.8 14.17 (14:10) 11.39 (14:40) 0.2 0 0.2 0 0
03-01-2020 2.5 (13:30) -1.8 (-00:0) 0.4 11.94 (15:10) 10 (15:10) 0.2 0 0.2 0 0
02-01-2020 11.2 (13:30) -3.1 (-00:0) 4 10.83 (15:40) 8.33 (15:30) 0.2 0 0.2 0 0
01-01-2020 10.9 (14:10) -2.5 (-00:0) 4.2 11.39 (16:50) 9.17 (16:50) 0 0 0 0 0
31-12-2019 8.5 (13:30) -2.9 (-00:0) 2.8 11.94 (16:20) 9.72 (16:20) 0.2 0 0.2 0 0
30-12-2019 12 (14:40) -1.4 (-00:0) 5.3 10 (16:50) 7.78 (17:50) 0 0 0 0 0
29-12-2019 11.1 (14:30) -3 (-00:0) 4.1 10.56 (15:40) 8.61 (15:50) 0 0 0 0 0
28-12-2019 15.8 (14:00) -1.3 (-00:0) 7.3 11.11 (16:20) 8.61 (16:10) 0.2 0 0.2 0 0
27-12-2019 13.4 (13:40) -0.6 (-00:0) 6.4 7.78 (14:40) 6.39 (14:40) 0.2 0 0.2 0 0
26-12-2019 17.2 (14:20) 1.8 (00:00) 9.5 12.78 (15:50) 10.28 (15:50) 0.2 0.2 0 0 0
25-12-2019 16.5 (14:40) 0.5 (00:00) 8.5 3.89 (16:40) 3.06 (16:40) 0.2 0.2 0 0 0
24-12-2019 13.5 (14:20) 0.2 (00:00) 6.9 6.11 (16:20) 4.17 (16:30) 0 0 0 0 0
23-12-2019 13.8 (15:00) -0.6 (-00:0) 6.6 8.61 (13:10) 6.67 (13:10) 0.2 0 0.2 0 0
22-12-2019 15.3 (13:00) 3.4 (00:00) 9.4 15 (03:40) 6.11 (13:30) 0.4 0 0 0.4 0

Gráficas

Temp. máximas Temp. mínimas Temp. medias Precipitaciones Rachas de viento máximas Velocidades máximas media en intervalos de 10 minutos

Datos horarios

Fecha y hora oficial Temperatura (ºC) Velocidad del viento (km/h) Dirección del viento Racha (km/h) Dirección de racha Precipitación (mm) Presión (hPa) Tendencia (hPa) Humedad (%)
2020-01-20 23:00:00 6.9 24 Nordeste 44 Nordeste 0 -- -- 48
2020-01-20 22:00:00 6.9 29 Nordeste 55 Norte 0 -- -- 48
2020-01-20 21:00:00 6.9 27 Nordeste 49 Nordeste 0 -- -- 48
2020-01-20 20:00:00 7.2 20 Norte 57 Norte 0 -- -- 46
2020-01-20 19:00:00 7.5 29 Norte 45 Norte 0 -- -- 47
2020-01-20 18:00:00 7.1 25 Norte 53 Norte 0 -- -- 48
2020-01-20 17:00:00 7.5 33 Norte 59 Norte 0 -- -- 46
2020-01-20 16:00:00 7.8 37 Norte 57 Norte 0 -- -- 46
2020-01-20 15:00:00 7.7 31 Norte 50 Norte 0 -- -- 46
2020-01-20 14:00:00 7.6 30 Norte 51 Norte 0 -- -- 46
2020-01-20 13:00:00 7.3 27 Norte 50 Nordeste 0 -- -- 45
2020-01-20 12:00:00 7.7 23 Norte 48 Norte 0 -- -- 42
2020-01-20 11:00:00 6.6 25 Norte 44 Nordeste 0 -- -- 43
2020-01-20 10:00:00 5.2 24 Norte 60 Norte 0 -- -- 46
2020-01-20 09:00:00 4.8 33 Norte 50 Nordeste 0 -- -- 42
2020-01-20 08:00:00 4.2 27 Norte 46 Norte 0 -- -- 40
2020-01-20 07:00:00 4.4 31 Norte 53 Nordeste 0 -- -- 38
2020-01-20 06:00:00 4.3 32 Nordeste 48 Nordeste 0 -- -- 35
2020-01-20 05:00:00 4.1 33 Norte 53 Norte 0 -- -- 35
2020-01-20 04:00:00 3.8 33 Norte 53 Nordeste 0 -- -- 36
2020-01-20 03:00:00 4.2 34 Norte 51 Nordeste 0 -- -- 34
2020-01-20 02:00:00 4.1 25 Norte 45 Nordeste 0 -- -- 34
2020-01-20 01:00:00 4.2 32 Norte 58 Nordeste 0 -- -- 36
2020-01-20 00:00:00 4.1 30 Norte 61 Nordeste 0 -- -- 38
2020-01-19 23:00:00 4.2 35 Norte 60 Norte 0 -- -- 36
2020-01-19 22:00:00 4.1 35 Norte 67 Nordeste 0 -- -- 36
2020-01-19 21:00:00 4.3 36 Norte 67 Norte 0 -- -- 37
2020-01-19 20:00:00 4.6 32 Norte 60 Nordeste 0 -- -- 37
2020-01-19 19:00:00 4.9 29 Norte 65 Norte 0 -- -- 34
2020-01-19 18:00:00 6 36 Norte 60 Norte 0 -- -- 33
2020-01-19 17:00:00 7.9 29 Nordeste 62 Nordeste 0 -- -- 26
2020-01-19 16:00:00 8.8 33 Norte 64 Norte 0 -- -- 27
2020-01-19 15:00:00 9.3 25 Norte 60 Norte 0 -- -- 29
2020-01-19 14:00:00 10.2 30 Nordeste 63 Nordeste 0 -- -- 30
2020-01-19 13:00:00 10.8 24 Norte 50 Norte 0 -- -- 34
2020-01-19 12:00:00 9.4 23 Norte 42 Norte 0 -- -- 35
2020-01-19 11:00:00 9.9 19 Norte 46 Norte 0 -- -- 36
2020-01-19 10:00:00 6.9 28 Norte 50 Norte 0 -- -- 49
2020-01-19 09:00:00 6.1 25 Norte 42 Norte 0 -- -- 60
2020-01-19 08:00:00 4.6 15 Norte 36 Noroeste 0 -- -- 67
2020-01-19 07:00:00 3.4 3 Noroeste 11 Norte 0 -- -- 70
2020-01-19 06:00:00 2.7 3 Norte 6 Nordeste 0 -- -- 78
2020-01-19 05:00:00 2.4 0 Calma 6 Norte 0 -- -- 76
2020-01-19 04:00:00 2.8 2 Nordeste 6 Norte 0 -- -- 74
2020-01-19 03:00:00 2.9 3 Norte 9 Norte 0 -- -- 73
2020-01-19 02:00:00 2.7 3 Norte 8 Norte 0 -- -- 78
2020-01-19 01:00:00 2.6 3 Norte 7 Nordeste 0 -- -- 76
2020-01-19 00:00:00 2.9 4 Norte 8 Norte 0 -- -- 74
2020-01-18 23:00:00 2.7 0 Calma 6 Norte 0 -- -- 78
2020-01-18 22:00:00 2.4 4 Norte 8 Norte 0 -- -- 79
2020-01-18 21:00:00 2.2 5 Norte 7 Norte 0 -- -- 82
2020-01-18 20:00:00 3 3 Nordeste 4 Norte 0 -- -- 77
2020-01-18 19:00:00 4.6 4 Norte 7 Sur 0 -- -- 70
2020-01-18 18:00:00 6.5 5 Sur 27 Sur 0 -- -- 61
2020-01-18 17:00:00 7.8 23 Sur 33 Sur 0 -- -- 57
2020-01-18 16:00:00 10.4 25 Sur 36 Sur 0 -- -- 50
2020-01-18 15:00:00 12.1 19 Sur 27 Sur 0 -- -- 44
2020-01-18 14:00:00 11.8 6 Sur 20 Sur 0 -- -- 39
2020-01-18 13:00:00 6.8 7 Sur 22 Norte 0 -- -- 51
2020-01-18 12:00:00 4.8 7 Norte 10 Norte 0 -- -- 62
2020-01-18 11:00:00 2.6 3 Norte 8 Norte 0 -- -- 68
2020-01-18 10:00:00 0.8 5 Norte 7 Norte 0 -- -- 79
2020-01-18 09:00:00 -1.2 5 Norte 10 Norte 0 -- -- 87
2020-01-18 08:00:00 -0.7 5 Noroeste 10 Norte 0 -- -- 81
2020-01-18 07:00:00 -2 5 Norte 8 Norte 0 -- -- 91
2020-01-18 06:00:00 -1.6 5 Norte 9 Norte 0 -- -- 88
2020-01-18 05:00:00 -2.5 6 Norte 9 Norte 0 -- -- 94
2020-01-18 04:00:00 -2.5 5 Norte 11 Sur 0 -- -- 94
2020-01-18 03:00:00 -2.5 6 Norte 9 Nordeste 0 -- -- 96
2020-01-18 02:00:00 -1.6 6 Norte 10 Norte 0 -- -- 94
2020-01-18 01:00:00 -1.2 4 Norte 8 Nordeste 0 -- -- 95
2020-01-18 00:00:00 -0.8 6 Norte 10 Norte 0 -- -- 96
2020-01-17 23:00:00 -0.2 6 Norte 12 Norte 0 -- -- 94
2020-01-17 22:00:00 1.2 5 Norte 10 Norte 0 -- -- 91
2020-01-17 21:00:00 2.6 4 Norte 11 Nordeste 0 -- -- 84
2020-01-17 20:00:00 3.3 7 Norte 17 Nordeste 0 -- -- 85
2020-01-17 19:00:00 5.4 4 Nordeste 14 Norte 0 -- -- 75
2020-01-17 18:00:00 7.2 6 Norte 42 Noroeste 0 -- -- 65
2020-01-17 17:00:00 10 10 Norte 44 Sur 0 -- -- 58
2020-01-17 16:00:00 11.9 10 Oeste 28 Nordeste 0.6 -- -- 51
2020-01-17 15:00:00 11 9 Noroeste 32 Sur 0 -- -- 65
2020-01-17 14:00:00 15 9 Sur 35 Sur 0 -- -- 48
2020-01-17 13:00:00 12.9 22 Sur 38 Sudeste 0 -- -- 56
2020-01-17 12:00:00 10.3 6 Sudeste 18 Sudeste 0 -- -- 64
2020-01-17 11:00:00 5.1 3 Norte 6 Norte 0 -- -- 90
2020-01-17 10:00:00 0.2 6 Nordeste 8 Nordeste 0 -- -- 97
2020-01-17 09:00:00 0 6 Norte 10 Norte 0 -- -- 99
2020-01-17 08:00:00 0.5 4 Norte 9 Norte 0 -- -- 99
2020-01-17 07:00:00 1 3 Norte 12 Norte 0 -- -- 99
2020-01-17 06:00:00 0.6 5 Norte 12 Nordeste 0 -- -- 100
2020-01-17 05:00:00 -0.1 6 Norte 11 Norte 0 -- -- 100
2020-01-17 04:00:00 0 6 Norte 9 Norte 0 -- -- 99
2020-01-17 03:00:00 0.1 5 Norte 9 Norte 0 -- -- 99
2020-01-17 02:00:00 0.9 7 Norte 10 Norte 0 -- -- 98
2020-01-17 01:00:00 1.5 5 Norte 10 Norte 0 -- -- 97
2020-01-17 00:00:00 0.7 5 Norte 8 Nordeste 0 -- -- 97
2020-01-16 23:00:00 1.7 3 Norte 8 Noroeste 0 -- -- 96
2020-01-16 22:00:00 1.4 5 Norte 7 Norte 0 -- -- 95
2020-01-16 21:00:00 3 4 Norte 6 Nordeste 0 -- -- 89
2020-01-16 20:00:00 4.5 2 Nordeste 5 Este 0 -- -- 82
2020-01-16 19:00:00 7.1 4 Sur 27 Sur 0 -- -- 76
2020-01-16 18:00:00 8.9 18 Sur 41 Sur 0 -- -- 69
2020-01-16 17:00:00 10.2 30 Sur 38 Sur 0 -- -- 64
2020-01-16 16:00:00 12.6 19 Sur 30 Sur 0 -- -- 51
2020-01-16 15:00:00 14.2 3 Nordeste 10 Sudeste 0 -- -- 39
2020-01-16 14:00:00 10.4 6 Norte 9 Norte 0 -- -- 49
2020-01-16 13:00:00 9 4 Norte 10 Norte 0 -- -- 51
2020-01-16 12:00:00 6.1 5 Norte 8 Norte 0 -- -- 61
2020-01-16 11:00:00 1.4 6 Norte 10 Norte 0 -- -- 85
2020-01-16 10:00:00 -3.2 6 Norte 8 Norte 0 -- -- 99
2020-01-16 09:00:00 -3 4 Norte 10 Norte 0 -- -- 97
2020-01-16 08:00:00 -3.4 4 Norte 8 Norte 0 -- -- 99
2020-01-16 07:00:00 -2.6 6 Noroeste 11 Norte 0 -- -- 100
2020-01-16 06:00:00 -2.8 4 Norte 5 Norte 0 -- -- 98
2020-01-16 05:00:00 -2.1 3 Norte 10 Norte 0 -- -- 93
2020-01-16 04:00:00 -2 3 Nordeste 7 Noroeste 0 -- -- 99
2020-01-16 03:00:00 -1.2 5 Noroeste 11 Norte 0 -- -- 94
2020-01-16 02:00:00 -1.6 5 Norte 10 Norte 0 -- -- 98
2020-01-16 01:00:00 -1.4 4 Nordeste 12 Norte 0 -- -- 98
2020-01-16 00:00:00 -1.3 8 Norte 11 Norte 0 -- -- 96
2020-01-15 23:00:00 -1.1 6 Norte 9 Norte 0 -- -- 96
2020-01-15 22:00:00 -0.8 4 Nordeste 10 Norte 0 -- -- 95
2020-01-15 21:00:00 -0.2 6 Norte 9 Norte 0 -- -- 93
2020-01-15 20:00:00 1.7 2 Sudeste 7 Sur 0 -- -- 86
2020-01-15 19:00:00 3.2 4 Sur 24 Sur 0 -- -- 83
2020-01-15 18:00:00 5 23 Sur 34 Sur 0 -- -- 78
2020-01-15 17:00:00 6 24 Sur 33 Sur 0 -- -- 70
2020-01-15 16:00:00 8.1 22 Sur 33 Sur 0 -- -- 57
2020-01-15 15:00:00 9 24 Sur 32 Sur 0 -- -- 50
2020-01-15 14:00:00 8.2 14 Sur 20 Sur 0 -- -- 48
2020-01-15 13:00:00 5.2 3 Nordeste 8 Norte 0 -- -- 55
2020-01-15 12:00:00 3.2 5 Norte 9 Norte 0 -- -- 65
2020-01-15 11:00:00 -0.3 3 Nordeste 10 Norte 0 -- -- 79
2020-01-15 10:00:00 -2.4 8 Norte 12 Norte 0 -- -- 90
2020-01-15 09:00:00 -4.8 6 Norte 9 Norte 0 -- -- 95
2020-01-15 08:00:00 -4.9 5 Norte 8 Noroeste 0 -- -- 95
2020-01-15 07:00:00 -4.5 4 Norte 9 Norte 0 -- -- 96
2020-01-15 06:00:00 -3.8 5 Norte 9 Norte 0 -- -- 94
2020-01-15 05:00:00 -3.9 7 Norte 10 Norte 0 -- -- 94
2020-01-15 04:00:00 -3.8 4 Norte 9 Norte 0 -- -- 96
2020-01-15 03:00:00 -3.1 6 Norte 9 Norte 0 -- -- 92
2020-01-15 02:00:00 -3.4 5 Norte 9 Norte 0 -- -- 98
2020-01-15 01:00:00 -3.3 3 Norte 6 Norte 0 -- -- 98
2020-01-15 00:00:00 -3 5 Norte 8 Norte 0 -- -- 97
2020-01-14 23:00:00 -2.5 6 Norte 7 Norte 0 -- -- 95
2020-01-14 22:00:00 -1.5 3 Norte 5 Norte 0 -- -- 92
2020-01-14 21:00:00 -1 4 Norte 7 Norte 0 -- -- 90
2020-01-14 20:00:00 0.6 5 Norte 6 Norte 0 -- -- 83
2020-01-14 19:00:00 3.2 4 Sur 23 Sur 0 -- -- 78
2020-01-14 18:00:00 5.3 18 Sur 38 Sur 0 -- -- 69
2020-01-14 17:00:00 6.9 28 Sur 35 Sur 0 -- -- 58
2020-01-14 16:00:00 9.4 24 Sur 36 Sudeste 0 -- -- 50
2020-01-14 15:00:00 10 25 Sur 37 Sur 0 -- -- 48
2020-01-14 14:00:00 9.3 26 Sur 36 Sur 0 -- -- 47
2020-01-14 13:00:00 8.4 11 Sur 16 Sur 0 -- -- 47
2020-01-14 12:00:00 7.5 0 Calma 8 Nordeste 0 -- -- 46
2020-01-14 11:00:00 1.9 5 Norte 8 Norte 0 -- -- 66
2020-01-14 10:00:00 -3.4 4 Norte 7 Norte 0 -- -- 89
2020-01-14 09:00:00 -4.6 6 Norte 9 Norte 0 -- -- 95
2020-01-14 08:00:00 -4.2 6 Norte 9 Norte 0 -- -- 95
2020-01-14 07:00:00 -3.2 4 Norte 8 Norte 0 -- -- 87
2020-01-14 06:00:00 -3.6 4 Norte 8 Norte 0 -- -- 93
2020-01-14 05:00:00 -4 5 Norte 8 Nordeste 0 -- -- 93
2020-01-14 04:00:00 -3.5 4 Norte 7 Norte 0 -- -- 93
2020-01-14 03:00:00 -3 5 Norte 10 Norte 0 -- -- 91
2020-01-14 02:00:00 -3.2 5 Norte 8 Noroeste 0 -- -- 95
2020-01-14 01:00:00 -3 4 Norte 8 Norte 0 -- -- 95
2020-01-14 00:00:00 -2.7 4 Norte 9 Norte 0 -- -- 94
2020-01-13 23:00:00 -2.3 6 Norte 8 Norte 0 -- -- 93
2020-01-13 22:00:00 -2.1 6 Norte 7 Norte 0 -- -- 92
2020-01-13 21:00:00 -0.8 2 Nordeste 9 Norte 0 -- -- 86
2020-01-13 20:00:00 0.5 4 Norte 6 Norte 0 -- -- 82
2020-01-13 19:00:00 2.1 3 Norte 15 Sur 0 -- -- 77
2020-01-13 18:00:00 4.3 13 Sur 27 Sur 0 -- -- 72
2020-01-13 17:00:00 5.6 19 Sur 30 Sur 0 -- -- 64
2020-01-13 16:00:00 6.7 21 Sur 29 Sur 0 -- -- 56
2020-01-13 15:00:00 8.5 19 Sur 26 Sur 0 -- -- 43
2020-01-13 14:00:00 10.1 0 Calma 6 Nordeste 0 -- -- 35
2020-01-13 13:00:00 4.8 4 Norte 7 Nordeste 0 -- -- 51
2020-01-13 12:00:00 3.7 5 Norte 10 Norte 0 -- -- 53
2020-01-13 11:00:00 0.5 5 Norte 8 Norte 0 -- -- 66
2020-01-13 10:00:00 -3.9 5 Norte 8 Norte 0 -- -- 87
2020-01-13 09:00:00 -4.3 4 Norte 8 Norte 0 -- -- 89
2020-01-13 08:00:00 -4.9 3 Norte 10 Norte 0 -- -- 94
2020-01-13 07:00:00 -4.8 4 Norte 7 Norte 0 -- -- 95
2020-01-13 06:00:00 -3.5 4 Norte 7 Norte 0 -- -- 88
2020-01-13 05:00:00 -3.7 4 Norte 6 Norte 0 -- -- 89
2020-01-13 04:00:00 -3.5 5 Norte 9 Nordeste 0 -- -- 94
2020-01-13 03:00:00 -3.7 5 Norte 8 Norte 0 -- -- 93
2020-01-13 02:00:00 -2.6 4 Norte 8 Norte 0 -- -- 90
2020-01-13 01:00:00 -3 5 Norte 8 Norte 0 -- -- 94
2020-01-13 00:00:00 -3 5 Norte 7 Norte 0 -- -- 96
2020-01-12 23:00:00 -2.5 4 Norte 8 Norte 0 -- -- 95
2020-01-12 22:00:00 -2.1 6 Norte 8 Norte 0 -- -- 95
2020-01-12 21:00:00 -1.2 7 Norte 9 Norte 0 -- -- 91
2020-01-12 20:00:00 0.2 6 Norte 9 Norte 0 -- -- 86
2020-01-12 19:00:00 2.3 4 Nordeste 22 Sur 0 -- -- 77
2020-01-12 18:00:00 5 20 Sur 35 Sur 0 -- -- 71
2020-01-12 17:00:00 6.5 28 Sur 41 Sur 0 -- -- 62
2020-01-12 16:00:00 8.9 31 Sur 43 Sur 0 -- -- 53
2020-01-12 15:00:00 10.1 30 Sur 42 Sur 0 -- -- 48
2020-01-12 14:00:00 10.8 7 Sudeste 22 Sur 0 -- -- 36
2020-01-12 13:00:00 8.9 2 Norte 8 Nordeste 0 -- -- 36
2020-01-12 12:00:00 4.1 5 Norte 8 Norte 0.2 -- -- 57
2020-01-12 11:00:00 0.1 5 Norte 9 Norte 0 -- -- 71
2020-01-12 10:00:00 -5 3 Norte 5 Norte 0 -- -- 91
2020-01-12 09:00:00 -4.8 4 Norte 7 Norte 0 -- -- 90
2020-01-12 08:00:00 -5.7 3 Norte 6 Norte 0 -- -- 96
2020-01-12 07:00:00 -5.3 2 Norte 6 Nordeste 0 -- -- 96
2020-01-12 06:00:00 -4.2 3 Norte 8 Noroeste 0 -- -- 97
2020-01-12 05:00:00 -5 5 Norte 7 Norte 0 -- -- 99
2020-01-12 04:00:00 -4.3 3 Norte 6 Noroeste 0 -- -- 99
2020-01-12 03:00:00 -4.3 5 Norte 8 Norte 0 -- -- 99
2020-01-12 02:00:00 -4.1 6 Norte 8 Norte 0 -- -- 100
2020-01-12 01:00:00 -3.8 4 Norte 7 Norte 0 -- -- 100
2020-01-12 00:00:00 -3.4 6 Norte 8 Norte 0 -- -- 100
2020-01-11 23:00:00 -3 4 Norte 10 Norte 0 -- -- 100
2020-01-11 22:00:00 -2 3 Sudoeste 8 Nordeste 0 -- -- 100
2020-01-11 21:00:00 -2.1 5 Norte 9 Norte 0 -- -- 99
2020-01-11 20:00:00 -1.4 4 Norte 7 Norte 0 -- -- 99
2020-01-11 19:00:00 0.1 0 Calma 22 Sur 0 -- -- 97
2020-01-11 18:00:00 1.4 17 Sur 37 Sur 0 -- -- 94
2020-01-11 17:00:00 2 31 Sur 50 Sur 0 -- -- 92
2020-01-11 16:00:00 3.5 40 Sur 55 Sur 0 -- -- 84
2020-01-11 15:00:00 4.5 45 Sur 56 Sur 0 -- -- 79
2020-01-11 14:00:00 5.3 38 Sur 46 Sur 0 -- -- 75
2020-01-11 13:00:00 5.6 30 Sur 36 Sur 0 -- -- 73
2020-01-11 12:00:00 5.1 7 Sur 12 Sur 0 -- -- 71
2020-01-11 11:00:00 2.9 0 Calma 9 Norte 0 -- -- 70
2020-01-11 10:00:00 -3.6 5 Norte 9 Norte 0 -- -- 90
2020-01-11 09:00:00 -3.5 4 Nordeste 6 Norte 0 -- -- 89
2020-01-11 08:00:00 -3.4 4 Norte 13 Noroeste 0 -- -- 95
2020-01-11 07:00:00 -3.5 5 Norte 7 Nordeste 0 -- -- 95
2020-01-11 06:00:00 -2.7 3 Norte 7 Norte 0 -- -- 95
2020-01-11 05:00:00 -1.7 4 Norte 8 Norte 0 -- -- 94
2020-01-11 04:00:00 -1.9 6 Norte 8 Norte 0 -- -- 99
2020-01-11 03:00:00 0.2 4 Sudoeste 17 Sudoeste 0 -- -- 99
2020-01-11 02:00:00 0 4 Nordeste 9 Sur 0 -- -- 89
2020-01-11 01:00:00 0.2 3 Norte 6 Nordeste 0 -- -- 97
2020-01-11 00:00:00 -0.3 4 Norte 8 Nordeste 0 -- -- 100
2020-01-10 23:00:00 1.2 2 Sur 9 Nordeste 0 -- -- 100
2020-01-10 22:00:00 1.5 0 Calma 9 Norte 0 -- -- 100
2020-01-10 21:00:00 1.9 6 Norte 9 Norte 0 -- -- 99
2020-01-10 20:00:00 2.9 3 Norte 8 Sur 0 -- -- 98
2020-01-10 19:00:00 3.7 5 Sur 29 Sur 0 -- -- 99
2020-01-10 18:00:00 4.4 23 Sur 42 Sur 0 -- -- 98
2020-01-10 17:00:00 4.9 36 Sur 46 Sur 0 -- -- 96
2020-01-10 16:00:00 7.1 33 Sur 45 Sur 0 -- -- 87
2020-01-10 15:00:00 9.7 32 Sur 50 Sur 0 -- -- 76
2020-01-10 14:00:00 9.8 33 Sur 41 Sudeste 0 -- -- 76
2020-01-10 13:00:00 9.7 26 Sur 35 Sur 0 -- -- 81
2020-01-10 12:00:00 8.8 7 Sur 19 Sur 0 -- -- 93
2020-01-10 11:00:00 4.7 2 Norte 6 Sudeste 0 -- -- 98
2020-01-10 10:00:00 3.8 3 Nordeste 5 Norte 0 -- -- 99
2020-01-10 09:00:00 3 5 Nordeste 9 Norte 0.2 -- -- 100
2020-01-10 08:00:00 3.2 2 Noroeste 10 Noroeste 0.6 -- -- 99
2020-01-10 07:00:00 3.2 2 Norte 9 Nordeste 0.2 -- -- 98
2020-01-10 06:00:00 3.7 0 Calma 9 Nordeste 0.4 -- -- 97
2020-01-10 05:00:00 3.8 3 Nordeste 13 Sudeste 0 -- -- 92
2020-01-10 04:00:00 4.1 4 Sudoeste 25 Sur 0 -- -- 93
2020-01-10 03:00:00 3.9 14 Sur 19 Sur 0 -- -- 93
2020-01-10 02:00:00 3.4 3 Norte 5 Norte 0 -- -- 90
2020-01-10 01:00:00 3.2 4 Oeste 10 Norte 0 -- -- 92
2020-01-10 00:00:00 3.9 3 Norte 6 Norte 0 -- -- 89
2020-01-09 23:00:00 3.7 3 Norte 6 Norte 0 -- -- 90
2020-01-09 22:00:00 3.7 3 Noroeste 9 Norte 0 -- -- 90
2020-01-09 21:00:00 4.3 3 Norte 5 Norte 0 -- -- 85
2020-01-09 20:00:00 4.6 0 Calma 5 Sudoeste 0 -- -- 84
2020-01-09 19:00:00 6 3 Sudeste 9 Sudeste 0 -- -- 79
2020-01-09 18:00:00 7.9 6 Sur 37 Sur 0 -- -- 72
2020-01-09 17:00:00 9.6 27 Sur 38 Sur 0 -- -- 65
2020-01-09 16:00:00 12.3 28 Sur 37 Sur 0 -- -- 58
2020-01-09 15:00:00 14.1 19 Sur 32 Sur 0 -- -- 51
2020-01-09 14:00:00 12.4 4 Norte 7 Norte 0 -- -- 53
2020-01-09 13:00:00 11.2 2 Nordeste 5 Norte 0 -- -- 58
2020-01-09 12:00:00 6.6 4 Norte 8 Norte 0 -- -- 82
2020-01-09 11:00:00 2.3 4 Norte 9 Norte 0 -- -- 100
2020-01-09 10:00:00 -1.6 5 Norte 8 Norte 0 -- -- 100
2020-01-09 09:00:00 -1.5 5 Norte 10 Noroeste 0 -- -- 100
2020-01-09 08:00:00 -0.5 2 Noroeste 6 Noroeste 0 -- -- 100
2020-01-09 07:00:00 -1.6 4 Norte 9 Norte 0 -- -- 100
2020-01-09 06:00:00 -1.4 7 Norte 9 Norte 0 -- -- 100
2020-01-09 05:00:00 -1.3 7 Norte 9 Noroeste 0 -- -- 100
2020-01-09 04:00:00 -0.4 5 Norte 8 Norte 0 -- -- 100
2020-01-09 03:00:00 0 6 Norte 10 Noroeste 0 -- -- 100
2020-01-09 02:00:00 0.1 6 Norte 8 Norte 0 -- -- 99
2020-01-09 01:00:00 0.4 6 Norte 9 Noroeste 0 -- -- 100
2020-01-09 00:00:00 1.3 4 Norte 7 Norte 0 -- -- 98
2020-01-08 23:00:00 2.5 0 Calma 6 Norte 0 -- -- 97
2020-01-08 22:00:00 3 4 Norte 6 Noroeste 0 -- -- 93
2020-01-08 21:00:00 4.4 4 Norte 9 Sur 0 -- -- 89
2020-01-08 20:00:00 6.8 0 Calma 4 Nordeste 0 -- -- 80
2020-01-08 19:00:00 8.6 6 Sur 20 Sur 0 -- -- 74
2020-01-08 18:00:00 10.4 19 Sur 33 Sur 0 -- -- 67
2020-01-08 17:00:00 11.2 27 Sur 37 Sur 0 -- -- 63
2020-01-08 16:00:00 12.9 26 Sur 37 Sur 0 -- -- 58
2020-01-08 15:00:00 13.7 31 Sur 37 Sur 0 -- -- 54
2020-01-08 14:00:00 12.3 18 Sur 26 Sur 0 -- -- 57
2020-01-08 13:00:00 11.1 2 Nordeste 7 Norte 0 -- -- 54
2020-01-08 12:00:00 7.2 3 Norte 8 Norte 0 -- -- 69
2020-01-08 11:00:00 1.8 4 Norte 8 Norte 0.2 -- -- 98
2020-01-08 10:00:00 -0.9 3 Norte 6 Norte 0 -- -- 100
2020-01-08 09:00:00 -1.3 5 Norte 9 Norte 0 -- -- 100
2020-01-08 08:00:00 -1.8 3 Norte 10 Norte 0 -- -- 100
2020-01-08 07:00:00 -1.7 6 Norte 13 Norte 0 -- -- 100
2020-01-08 06:00:00 -1.9 8 Norte 11 Norte 0 -- -- 100
2020-01-08 05:00:00 -2.1 6 Nordeste 11 Nordeste 0 -- -- 100
2020-01-08 04:00:00 -1.8 4 Norte 9 Norte 0 -- -- 100
2020-01-08 03:00:00 -1.8 5 Norte 8 Norte 0 -- -- 100
2020-01-08 02:00:00 -1.8 5 Norte 8 Norte 0 -- -- 100
2020-01-08 01:00:00 -1.6 5 Norte 10 Nordeste 0 -- -- 100
2020-01-08 00:00:00 -1.4 5 Norte 9 Nordeste 0 -- -- 100
2020-01-07 23:00:00 -1 4 Nordeste 8 Norte 0 -- -- 100
2020-01-07 22:00:00 -0.8 4 Nordeste 10 Nordeste 0 -- -- 100
2020-01-07 21:00:00 -1 7 Norte 10 Norte 0 -- -- 100
2020-01-07 20:00:00 -0.8 8 Norte 9 Norte 0 -- -- 100
2020-01-07 19:00:00 -0.2 2 Norte 22 Sur 0 -- -- 99
2020-01-07 18:00:00 0.2 17 Sur 35 Sur 0 -- -- 98
2020-01-07 17:00:00 0.7 29 Sur 38 Sur 0 -- -- 96
2020-01-07 16:00:00 2.1 29 Sur 40 Sur 0 -- -- 88
2020-01-07 15:00:00 2.7 34 Sur 41 Sur 0 -- -- 84
2020-01-07 14:00:00 2.6 29 Sur 41 Sur 0 -- -- 84
2020-01-07 13:00:00 2.4 31 Sur 39 Sur 0 -- -- 84
2020-01-07 12:00:00 7 4 Sur 10 Sur 0 -- -- 64
2020-01-07 11:00:00 2 3 Norte 7 Noroeste 0.2 -- -- 94
2020-01-07 10:00:00 -2.5 4 Norte 10 Norte 0 -- -- 99
2020-01-07 09:00:00 -2.8 3 Norte 9 Norte 0 -- -- 100
2020-01-07 08:00:00 -3.4 6 Norte 8 Norte 0 -- -- 100
2020-01-07 07:00:00 -3.1 6 Norte 10 Norte 0 -- -- 100
2020-01-07 06:00:00 -2.8 8 Norte 10 Norte 0 -- -- 100
2020-01-07 05:00:00 -2.8 9 Norte 12 Norte 0 -- -- 99
2020-01-07 04:00:00 -2.5 5 Norte 6 Norte 0 -- -- 99
2020-01-07 03:00:00 -2 5 Norte 7 Nordeste 0 -- -- 98
2020-01-07 02:00:00 -1 0 Calma 7 Norte 0 -- -- 100
2020-01-07 01:00:00 -1.2 4 Nordeste 8 Norte 0 -- -- 98
2020-01-07 00:00:00 -0.5 5 Noroeste 9 Noroeste 0 -- -- 98
2020-01-06 23:00:00 -1 4 Norte 8 Nordeste 0 -- -- 98
2020-01-06 22:00:00 -0.4 4 Nordeste 9 Norte 0 -- -- 96
2020-01-06 21:00:00 0.2 6 Norte 10 Norte 0 -- -- 94
2020-01-06 20:00:00 1.5 5 Norte 6 Norte 0 -- -- 89
2020-01-06 19:00:00 4.1 0 Calma 24 Sur 0 -- -- 84
2020-01-06 18:00:00 6.1 18 Sur 32 Sur 0 -- -- 76
2020-01-06 17:00:00 7.9 24 Sur 35 Sur 0 -- -- 69
2020-01-06 16:00:00 11.1 21 Sur 30 Sur 0 -- -- 54
2020-01-06 15:00:00 12.3 12 Sur 22 Sur 0 -- -- 43
2020-01-06 14:00:00 12.7 2 Norte 6 Nordeste 0 -- -- 37
2020-01-06 13:00:00 9 2 Norte 8 Norte 0 -- -- 57
2020-01-06 12:00:00 4.1 5 Norte 7 Norte 0 -- -- 75
2020-01-06 11:00:00 -0.6 5 Norte 6 Norte 0 -- -- 99
2020-01-06 10:00:00 -3.7 5 Norte 7 Norte 0 -- -- 99